This is the latest recevied weather packets stored in our database for station/object KC2WGU. If no packets are shown the sender has not sent any weather packets the latest 1 day(s).
| Time | Temp. | Humidity | Pressure | Rain* | Wind** | Luminosity | Snow |
|---|---|---|---|---|---|---|---|
| 1836274392 | 11.11° C | 78% | 1020.7 hPa | 0 mm | 1.34 m/s, 280° | 0 W/m² | - |
| 1836274243 | 11.11° C | 77% | 1020.9 hPa | 0 mm | 2.24 m/s, 287° | 0 W/m² | - |
| 1778046622 | 11.11° C | 86% | 1007.1 hPa | 0 mm | 0.89 m/s, 277° | 0 W/m² | - |
| 1778046021 | 11.67° C | 87% | 1007.2 hPa | 0 mm | 0.89 m/s, 277° | 0 W/m² | - |
| 1778045422 | 11.67° C | 87% | 1007.3 hPa | 0 mm | 0.89 m/s, 277° | 0 W/m² | - |
| 1778044823 | 11.67° C | 87% | 1007.3 hPa | 0 mm | 0.89 m/s, 277° | 0 W/m² | - |
| 1778044223 | 11.67° C | 87% | 1007.3 hPa | 0 mm | 0.89 m/s, 277° | 0 W/m² | - |
| 1778043622 | 11.67° C | 87% | 1007.6 hPa | 0 mm | 0.45 m/s, 286° | 0 W/m² | - |
| 1778043022 | 11.67° C | 87% | 1007.6 hPa | 0 mm | 0.89 m/s, 276° | 0 W/m² | - |
| 1778042422 | 12.22° C | 87% | 1007.4 hPa | 0 mm | 0.89 m/s, 266° | 0 W/m² | - |
| 1778041823 | 12.22° C | 87% | 1007.7 hPa | 0 mm | 1.34 m/s, 291° | 0 W/m² | - |
| 1778041222 | 12.22° C | 87% | 1007.7 hPa | 0 mm | 0.89 m/s, 291° | 0 W/m² | - |
| 1778040622 | 12.22° C | 86% | 1007.9 hPa | 0 mm | 0.45 m/s, 274° | 0 W/m² | - |
| 1778040022 | 12.22° C | 86% | 1007.9 hPa | 0 mm | 0.89 m/s, 303° | 0 W/m² | - |
| 1778039422 | 12.22° C | 86% | 1007.7 hPa | 0 mm | 0.89 m/s, 280° | 0 W/m² | - |
| 1778038822 | 12.22° C | 85% | 1007.7 hPa | 0 mm | 0.89 m/s, 268° | 0 W/m² | - |
| 1778038222 | 12.22° C | 85% | 1007.8 hPa | 0 mm | 1.34 m/s, 302° | 0 W/m² | - |
| 1778037622 | 12.22° C | 84% | 1007.7 hPa | 0 mm | 1.34 m/s, 288° | 0 W/m² | - |
| 1778037023 | 12.78° C | 83% | 1007.7 hPa | 0 mm | 0.89 m/s, 273° | 0 W/m² | - |
| 1778036423 | 12.22° C | 82% | 1007.7 hPa | 0 mm | 0 m/s | 0 W/m² | - |
| 1778035822 | 12.22° C | 82% | 1007.5 hPa | 0 mm | 1.34 m/s, 314° | 0 W/m² | - |
| 1778035222 | 12.22° C | 82% | 1007.6 hPa | 0 mm | 1.34 m/s, 304° | 0 W/m² | - |
| 1778034635 | 12.22° C | 82% | 1007.6 hPa | 0 mm | 1.34 m/s, 292° | 0 W/m² | - |
| 1778034023 | 12.22° C | 82% | 1007.7 hPa | 0 mm | 0.89 m/s, 299° | 0 W/m² | - |
| 1778033423 | 12.78° C | 81% | 1007.7 hPa | 0 mm | 0.89 m/s, 306° | 0 W/m² | - |
* Rain latest hour (hover to see other rain measurements)
** Current wind speed in m/s (hover to see current wind gust speed)